sensor_id;sensor_type;location;lat;lon;timestamp;temperature;humidity
15574;DHT22;7888;46.748;8.102;2024-01-30T00:01:43;9.10;41.70
15574;DHT22;7888;46.748;8.102;2024-01-30T00:04:09;9.10;41.70
15574;DHT22;7888;46.748;8.102;2024-01-30T00:06:35;9.10;41.90
15574;DHT22;7888;46.748;8.102;2024-01-30T00:09:00;9.10;41.90
15574;DHT22;7888;46.748;8.102;2024-01-30T00:11:26;9.10;41.90
15574;DHT22;7888;46.748;8.102;2024-01-30T00:13:53;9.10;42.10
15574;DHT22;7888;46.748;8.102;2024-01-30T00:16:20;9.10;42.10
15574;DHT22;7888;46.748;8.102;2024-01-30T00:18:47;9.00;42.10
15574;DHT22;7888;46.748;8.102;2024-01-30T00:21:13;9.00;42.10
15574;DHT22;7888;46.748;8.102;2024-01-30T00:23:39;9.00;42.20
15574;DHT22;7888;46.748;8.102;2024-01-30T00:26:05;9.00;42.30
15574;DHT22;7888;46.748;8.102;2024-01-30T00:28:31;9.00;42.30
15574;DHT22;7888;46.748;8.102;2024-01-30T00:30:57;8.90;42.90
15574;DHT22;7888;46.748;8.102;2024-01-30T00:33:22;8.90;42.40
15574;DHT22;7888;46.748;8.102;2024-01-30T00:35:48;8.90;42.50
15574;DHT22;7888;46.748;8.102;2024-01-30T00:38:14;8.90;42.50
15574;DHT22;7888;46.748;8.102;2024-01-30T00:40:39;8.90;42.40
15574;DHT22;7888;46.748;8.102;2024-01-30T00:43:05;8.90;42.40
15574;DHT22;7888;46.748;8.102;2024-01-30T00:45:31;8.90;42.50
15574;DHT22;7888;46.748;8.102;2024-01-30T00:47:57;8.90;42.50
15574;DHT22;7888;46.748;8.102;2024-01-30T00:50:22;8.80;42.50
15574;DHT22;7888;46.748;8.102;2024-01-30T00:52:48;8.80;42.50
15574;DHT22;7888;46.748;8.102;2024-01-30T00:55:14;8.80;42.60
15574;DHT22;7888;46.748;8.102;2024-01-30T00:57:40;8.80;42.60
15574;DHT22;7888;46.748;8.102;2024-01-30T01:00:07;8.80;42.60
15574;DHT22;7888;46.748;8.102;2024-01-30T01:02:35;8.70;42.60
15574;DHT22;7888;46.748;8.102;2024-01-30T01:05:01;8.70;42.70
15574;DHT22;7888;46.748;8.102;2024-01-30T01:07:27;8.70;42.70
15574;DHT22;7888;46.748;8.102;2024-01-30T01:09:53;8.70;42.80
15574;DHT22;7888;46.748;8.102;2024-01-30T01:12:19;8.70;42.90
15574;DHT22;7888;46.748;8.102;2024-01-30T01:14:44;8.70;42.90
15574;DHT22;7888;46.748;8.102;2024-01-30T01:17:10;8.60;42.90
15574;DHT22;7888;46.748;8.102;2024-01-30T01:19:36;8.60;43.00
15574;DHT22;7888;46.748;8.102;2024-01-30T01:22:02;8.60;43.10
15574;DHT22;7888;46.748;8.102;2024-01-30T01:24:30;8.60;43.10
15574;DHT22;7888;46.748;8.102;2024-01-30T01:26:58;8.60;43.70
15574;DHT22;7888;46.748;8.102;2024-01-30T01:29:24;8.60;43.10
15574;DHT22;7888;46.748;8.102;2024-01-30T01:31:55;8.60;43.10
15574;DHT22;7888;46.748;8.102;2024-01-30T01:34:21;8.60;43.10
15574;DHT22;7888;46.748;8.102;2024-01-30T01:36:47;8.50;43.00
15574;DHT22;7888;46.748;8.102;2024-01-30T01:39:13;8.60;43.10
15574;DHT22;7888;46.748;8.102;2024-01-30T01:41:39;8.50;43.10
15574;DHT22;7888;46.748;8.102;2024-01-30T01:44:04;8.50;43.10
15574;DHT22;7888;46.748;8.102;2024-01-30T01:46:32;8.50;43.10
15574;DHT22;7888;46.748;8.102;2024-01-30T01:49:00;8.50;43.30
15574;DHT22;7888;46.748;8.102;2024-01-30T01:51:29;8.50;43.30
15574;DHT22;7888;46.748;8.102;2024-01-30T01:53:58;8.50;43.30
15574;DHT22;7888;46.748;8.102;2024-01-30T01:56:27;8.50;43.20
15574;DHT22;7888;46.748;8.102;2024-01-30T01:58:55;8.50;43.20
15574;DHT22;7888;46.748;8.102;2024-01-30T02:01:23;8.50;43.30
15574;DHT22;7888;46.748;8.102;2024-01-30T02:03:50;8.40;43.40
15574;DHT22;7888;46.748;8.102;2024-01-30T02:06:16;8.50;43.50
15574;DHT22;7888;46.748;8.102;2024-01-30T02:08:43;8.40;43.60
15574;DHT22;7888;46.748;8.102;2024-01-30T02:11:09;8.40;43.60
15574;DHT22;7888;46.748;8.102;2024-01-30T02:13:36;8.40;43.60
15574;DHT22;7888;46.748;8.102;2024-01-30T02:16:02;8.40;43.60
15574;DHT22;7888;46.748;8.102;2024-01-30T02:18:27;8.40;43.80
15574;DHT22;7888;46.748;8.102;2024-01-30T02:20:56;8.40;43.90
15574;DHT22;7888;46.748;8.102;2024-01-30T02:23:24;8.40;43.90
15574;DHT22;7888;46.748;8.102;2024-01-30T02:25:51;8.30;43.80
15574;DHT22;7888;46.748;8.102;2024-01-30T02:28:19;8.30;43.80
15574;DHT22;7888;46.748;8.102;2024-01-30T02:30:46;8.30;43.90
15574;DHT22;7888;46.748;8.102;2024-01-30T02:33:12;8.30;43.80
15574;DHT22;7888;46.748;8.102;2024-01-30T02:35:38;8.30;43.80
15574;DHT22;7888;46.748;8.102;2024-01-30T02:38:04;8.30;43.80
15574;DHT22;7888;46.748;8.102;2024-01-30T02:40:31;8.20;43.80
15574;DHT22;7888;46.748;8.102;2024-01-30T02:42:58;8.20;44.00
15574;DHT22;7888;46.748;8.102;2024-01-30T02:45:25;8.10;44.00
15574;DHT22;7888;46.748;8.102;2024-01-30T02:47:51;8.10;44.00
15574;DHT22;7888;46.748;8.102;2024-01-30T02:50:17;8.10;44.60
15574;DHT22;7888;46.748;8.102;2024-01-30T02:52:43;8.10;45.20
15574;DHT22;7888;46.748;8.102;2024-01-30T02:55:11;8.10;45.20
15574;DHT22;7888;46.748;8.102;2024-01-30T02:57:38;8.10;44.90
15574;DHT22;7888;46.748;8.102;2024-01-30T03:00:05;8.10;44.90
15574;DHT22;7888;46.748;8.102;2024-01-30T03:02:32;8.20;45.00
15574;DHT22;7888;46.748;8.102;2024-01-30T03:04:59;8.20;44.90
15574;DHT22;7888;46.748;8.102;2024-01-30T03:07:25;8.20;44.70
15574;DHT22;7888;46.748;8.102;2024-01-30T03:09:51;8.20;44.60
15574;DHT22;7888;46.748;8.102;2024-01-30T03:12:17;8.20;44.60
15574;DHT22;7888;46.748;8.102;2024-01-30T03:14:42;8.20;44.60
15574;DHT22;7888;46.748;8.102;2024-01-30T03:17:08;8.10;44.60
15574;DHT22;7888;46.748;8.102;2024-01-30T03:19:34;8.10;44.60
15574;DHT22;7888;46.748;8.102;2024-01-30T03:21:59;8.10;44.60
15574;DHT22;7888;46.748;8.102;2024-01-30T03:24:25;8.10;44.60
15574;DHT22;7888;46.748;8.102;2024-01-30T03:26:51;8.10;44.60
15574;DHT22;7888;46.748;8.102;2024-01-30T03:29:17;8.10;44.60
15574;DHT22;7888;46.748;8.102;2024-01-30T03:31:43;8.10;44.70
15574;DHT22;7888;46.748;8.102;2024-01-30T03:34:09;8.00;44.70
15574;DHT22;7888;46.748;8.102;2024-01-30T03:36:34;8.00;44.70
15574;DHT22;7888;46.748;8.102;2024-01-30T03:39:01;8.00;44.80
15574;DHT22;7888;46.748;8.102;2024-01-30T03:41:27;8.00;44.80
15574;DHT22;7888;46.748;8.102;2024-01-30T03:43:53;8.00;44.70
15574;DHT22;7888;46.748;8.102;2024-01-30T03:46:18;8.00;44.70
15574;DHT22;7888;46.748;8.102;2024-01-30T03:48:45;8.00;44.80
15574;DHT22;7888;46.748;8.102;2024-01-30T03:51:11;8.00;44.80
15574;DHT22;7888;46.748;8.102;2024-01-30T03:53:40;8.10;44.90
15574;DHT22;7888;46.748;8.102;2024-01-30T03:56:07;8.00;45.00
15574;DHT22;7888;46.748;8.102;2024-01-30T03:58:33;8.00;44.90
15574;DHT22;7888;46.748;8.102;2024-01-30T04:00:59;8.00;44.80
15574;DHT22;7888;46.748;8.102;2024-01-30T04:03:25;8.10;44.80
15574;DHT22;7888;46.748;8.102;2024-01-30T04:05:54;8.00;45.40
15574;DHT22;7888;46.748;8.102;2024-01-30T04:08:20;8.00;45.00
15574;DHT22;7888;46.748;8.102;2024-01-30T04:10:46;8.00;44.90
15574;DHT22;7888;46.748;8.102;2024-01-30T04:13:12;8.00;44.90
15574;DHT22;7888;46.748;8.102;2024-01-30T04:15:39;8.00;44.90
15574;DHT22;7888;46.748;8.102;2024-01-30T04:18:05;8.00;44.90
15574;DHT22;7888;46.748;8.102;2024-01-30T04:20:31;8.00;45.00
15574;DHT22;7888;46.748;8.102;2024-01-30T04:22:57;8.00;44.90
15574;DHT22;7888;46.748;8.102;2024-01-30T04:25:22;8.00;44.90
15574;DHT22;7888;46.748;8.102;2024-01-30T04:27:48;8.00;44.90
15574;DHT22;7888;46.748;8.102;2024-01-30T04:30:14;8.00;44.90
15574;DHT22;7888;46.748;8.102;2024-01-30T04:32:40;7.90;44.90
15574;DHT22;7888;46.748;8.102;2024-01-30T04:35:06;7.90;44.90
15574;DHT22;7888;46.748;8.102;2024-01-30T04:37:32;7.90;44.90
15574;DHT22;7888;46.748;8.102;2024-01-30T04:39:58;7.90;44.80
15574;DHT22;7888;46.748;8.102;2024-01-30T04:42:24;7.90;44.80
15574;DHT22;7888;46.748;8.102;2024-01-30T04:44:50;7.90;44.80
15574;DHT22;7888;46.748;8.102;2024-01-30T04:47:16;7.80;44.80
15574;DHT22;7888;46.748;8.102;2024-01-30T04:49:42;7.90;44.80
15574;DHT22;7888;46.748;8.102;2024-01-30T04:52:08;7.80;44.80
15574;DHT22;7888;46.748;8.102;2024-01-30T04:54:35;7.80;44.80
15574;DHT22;7888;46.748;8.102;2024-01-30T04:57:02;7.80;45.00
15574;DHT22;7888;46.748;8.102;2024-01-30T04:59:28;7.80;45.00
15574;DHT22;7888;46.748;8.102;2024-01-30T05:01:54;7.70;45.00
15574;DHT22;7888;46.748;8.102;2024-01-30T05:04:20;7.70;44.90
15574;DHT22;7888;46.748;8.102;2024-01-30T05:06:46;7.70;45.00
15574;DHT22;7888;46.748;8.102;2024-01-30T05:09:12;7.70;45.00
15574;DHT22;7888;46.748;8.102;2024-01-30T05:11:39;7.70;45.00
15574;DHT22;7888;46.748;8.102;2024-01-30T05:14:06;7.70;45.10
15574;DHT22;7888;46.748;8.102;2024-01-30T05:16:32;7.60;45.10
15574;DHT22;7888;46.748;8.102;2024-01-30T05:18:58;7.60;45.20
15574;DHT22;7888;46.748;8.102;2024-01-30T05:21:24;7.60;45.30
15574;DHT22;7888;46.748;8.102;2024-01-30T05:23:50;7.60;45.30
15574;DHT22;7888;46.748;8.102;2024-01-30T05:26:16;7.60;45.30
15574;DHT22;7888;46.748;8.102;2024-01-30T05:28:43;7.60;45.40
15574;DHT22;7888;46.748;8.102;2024-01-30T05:31:12;7.60;45.40
15574;DHT22;7888;46.748;8.102;2024-01-30T05:33:38;7.60;45.40
15574;DHT22;7888;46.748;8.102;2024-01-30T05:36:04;7.60;45.40
15574;DHT22;7888;46.748;8.102;2024-01-30T05:38:29;7.50;45.40
15574;DHT22;7888;46.748;8.102;2024-01-30T05:40:55;7.50;45.40
15574;DHT22;7888;46.748;8.102;2024-01-30T05:43:23;7.50;45.40
15574;DHT22;7888;46.748;8.102;2024-01-30T05:45:49;7.50;45.40
15574;DHT22;7888;46.748;8.102;2024-01-30T05:48:15;7.50;45.40
15574;DHT22;7888;46.748;8.102;2024-01-30T05:50:41;7.50;45.40
15574;DHT22;7888;46.748;8.102;2024-01-30T05:53:07;7.50;45.50
15574;DHT22;7888;46.748;8.102;2024-01-30T05:55:32;7.50;45.60
15574;DHT22;7888;46.748;8.102;2024-01-30T05:57:58;7.50;45.60
15574;DHT22;7888;46.748;8.102;2024-01-30T06:00:24;7.50;45.70
15574;DHT22;7888;46.748;8.102;2024-01-30T06:02:50;7.50;45.70
15574;DHT22;7888;46.748;8.102;2024-01-30T06:05:15;7.50;45.70
15574;DHT22;7888;46.748;8.102;2024-01-30T06:07:41;7.50;45.80
15574;DHT22;7888;46.748;8.102;2024-01-30T06:10:07;7.50;45.80
15574;DHT22;7888;46.748;8.102;2024-01-30T06:12:34;7.50;45.90
15574;DHT22;7888;46.748;8.102;2024-01-30T06:15:01;7.50;45.80
15574;DHT22;7888;46.748;8.102;2024-01-30T06:17:27;7.50;45.90
15574;DHT22;7888;46.748;8.102;2024-01-30T06:19:53;7.50;45.80
15574;DHT22;7888;46.748;8.102;2024-01-30T06:22:19;7.50;45.80
15574;DHT22;7888;46.748;8.102;2024-01-30T06:24:45;7.50;46.00
15574;DHT22;7888;46.748;8.102;2024-01-30T06:27:13;7.50;46.10
15574;DHT22;7888;46.748;8.102;2024-01-30T06:29:40;7.50;46.00
15574;DHT22;7888;46.748;8.102;2024-01-30T06:32:06;7.50;46.00
15574;DHT22;7888;46.748;8.102;2024-01-30T06:34:32;7.50;46.00
15574;DHT22;7888;46.748;8.102;2024-01-30T06:36:57;7.50;46.00
15574;DHT22;7888;46.748;8.102;2024-01-30T06:39:23;7.50;46.00
15574;DHT22;7888;46.748;8.102;2024-01-30T06:41:49;7.50;46.20
15574;DHT22;7888;46.748;8.102;2024-01-30T06:44:15;7.50;46.30
15574;DHT22;7888;46.748;8.102;2024-01-30T06:46:40;7.50;46.30
15574;DHT22;7888;46.748;8.102;2024-01-30T06:49:06;7.50;46.30
15574;DHT22;7888;46.748;8.102;2024-01-30T06:51:32;7.40;46.30
15574;DHT22;7888;46.748;8.102;2024-01-30T06:53:58;7.50;46.50
15574;DHT22;7888;46.748;8.102;2024-01-30T06:56:23;7.50;46.50
15574;DHT22;7888;46.748;8.102;2024-01-30T06:58:50;7.40;46.50
15574;DHT22;7888;46.748;8.102;2024-01-30T07:01:16;7.50;46.50
15574;DHT22;7888;46.748;8.102;2024-01-30T07:03:42;7.40;46.50
15574;DHT22;7888;46.748;8.102;2024-01-30T07:06:09;7.40;46.70
15574;DHT22;7888;46.748;8.102;2024-01-30T07:08:36;7.40;46.80
15574;DHT22;7888;46.748;8.102;2024-01-30T07:11:04;7.40;46.80
15574;DHT22;7888;46.748;8.102;2024-01-30T07:13:32;7.40;46.90
15574;DHT22;7888;46.748;8.102;2024-01-30T07:15:57;7.40;46.80
15574;DHT22;7888;46.748;8.102;2024-01-30T07:18:23;7.40;46.80
15574;DHT22;7888;46.748;8.102;2024-01-30T07:20:49;7.40;46.80
15574;DHT22;7888;46.748;8.102;2024-01-30T07:23:16;7.40;46.80
15574;DHT22;7888;46.748;8.102;2024-01-30T07:25:46;7.40;46.80
15574;DHT22;7888;46.748;8.102;2024-01-30T07:28:14;7.40;47.00
15574;DHT22;7888;46.748;8.102;2024-01-30T07:30:42;7.40;46.80
15574;DHT22;7888;46.748;8.102;2024-01-30T07:33:09;7.40;46.90
15574;DHT22;7888;46.748;8.102;2024-01-30T07:35:35;7.40;46.90
15574;DHT22;7888;46.748;8.102;2024-01-30T07:38:01;7.40;47.00
15574;DHT22;7888;46.748;8.102;2024-01-30T07:40:27;7.50;47.20
15574;DHT22;7888;46.748;8.102;2024-01-30T07:42:54;7.50;47.60
15574;DHT22;7888;46.748;8.102;2024-01-30T07:45:20;7.50;47.50
15574;DHT22;7888;46.748;8.102;2024-01-30T07:47:49;7.50;47.50
15574;DHT22;7888;46.748;8.102;2024-01-30T07:50:15;7.50;47.50
15574;DHT22;7888;46.748;8.102;2024-01-30T07:52:41;7.50;47.60
15574;DHT22;7888;46.748;8.102;2024-01-30T07:55:07;7.60;47.70
15574;DHT22;7888;46.748;8.102;2024-01-30T07:57:34;7.60;47.90
15574;DHT22;7888;46.748;8.102;2024-01-30T08:00:00;7.60;48.00
15574;DHT22;7888;46.748;8.102;2024-01-30T08:02:26;7.70;48.10
15574;DHT22;7888;46.748;8.102;2024-01-30T08:04:52;7.70;48.10
15574;DHT22;7888;46.748;8.102;2024-01-30T08:07:18;7.80;48.20
15574;DHT22;7888;46.748;8.102;2024-01-30T08:09:44;7.90;48.70
15574;DHT22;7888;46.748;8.102;2024-01-30T08:12:09;7.90;48.20
15574;DHT22;7888;46.748;8.102;2024-01-30T08:14:35;8.00;48.30
15574;DHT22;7888;46.748;8.102;2024-01-30T08:17:01;8.00;48.20
15574;DHT22;7888;46.748;8.102;2024-01-30T08:19:27;8.10;48.20
15574;DHT22;7888;46.748;8.102;2024-01-30T08:21:52;8.10;48.00
15574;DHT22;7888;46.748;8.102;2024-01-30T08:24:18;8.20;47.90
15574;DHT22;7888;46.748;8.102;2024-01-30T08:26:44;8.20;47.90
15574;DHT22;7888;46.748;8.102;2024-01-30T08:29:09;8.30;47.90
15574;DHT22;7888;46.748;8.102;2024-01-30T08:31:35;8.30;47.80
15574;DHT22;7888;46.748;8.102;2024-01-30T08:34:01;8.30;47.80
15574;DHT22;7888;46.748;8.102;2024-01-30T08:36:27;8.40;47.90
15574;DHT22;7888;46.748;8.102;2024-01-30T08:38:53;8.40;47.90
15574;DHT22;7888;46.748;8.102;2024-01-30T08:41:18;8.40;48.00
15574;DHT22;7888;46.748;8.102;2024-01-30T08:43:44;8.50;48.10
15574;DHT22;7888;46.748;8.102;2024-01-30T08:46:11;8.60;48.30
15574;DHT22;7888;46.748;8.102;2024-01-30T08:48:37;8.60;48.40
15574;DHT22;7888;46.748;8.102;2024-01-30T08:51:02;8.80;48.60
15574;DHT22;7888;46.748;8.102;2024-01-30T08:53:28;8.90;48.80
15574;DHT22;7888;46.748;8.102;2024-01-30T08:55:54;9.00;48.80
15574;DHT22;7888;46.748;8.102;2024-01-30T08:58:20;9.20;48.70
15574;DHT22;7888;46.748;8.102;2024-01-30T09:00:45;9.30;48.70
15574;DHT22;7888;46.748;8.102;2024-01-30T09:03:12;9.40;48.60
15574;DHT22;7888;46.748;8.102;2024-01-30T09:05:37;9.60;48.60
15574;DHT22;7888;46.748;8.102;2024-01-30T09:08:03;9.70;48.50
15574;DHT22;7888;46.748;8.102;2024-01-30T09:10:29;9.90;48.70
15574;DHT22;7888;46.748;8.102;2024-01-30T09:12:55;10.10;48.70
15574;DHT22;7888;46.748;8.102;2024-01-30T09:15:21;10.20;48.70
15574;DHT22;7888;46.748;8.102;2024-01-30T09:17:47;10.50;48.70
15574;DHT22;7888;46.748;8.102;2024-01-30T09:20:13;10.70;48.70
15574;DHT22;7888;46.748;8.102;2024-01-30T09:22:38;10.90;48.40
15574;DHT22;7888;46.748;8.102;2024-01-30T09:25:04;11.10;48.20
15574;DHT22;7888;46.748;8.102;2024-01-30T09:27:30;11.30;47.90
15574;DHT22;7888;46.748;8.102;2024-01-30T09:29:56;11.40;47.60
15574;DHT22;7888;46.748;8.102;2024-01-30T09:32:22;11.60;47.50
15574;DHT22;7888;46.748;8.102;2024-01-30T09:34:47;11.80;47.30
15574;DHT22;7888;46.748;8.102;2024-01-30T09:37:13;12.00;47.20
15574;DHT22;7888;46.748;8.102;2024-01-30T09:39:41;12.20;47.10
15574;DHT22;7888;46.748;8.102;2024-01-30T09:44:50;12.50;46.20
15574;DHT22;7888;46.748;8.102;2024-01-30T09:47:17;12.70;46.00
15574;DHT22;7888;46.748;8.102;2024-01-30T09:49:44;12.90;45.90
15574;DHT22;7888;46.748;8.102;2024-01-30T09:52:11;13.00;45.90
15574;DHT22;7888;46.748;8.102;2024-01-30T09:54:38;13.10;45.80
15574;DHT22;7888;46.748;8.102;2024-01-30T09:57:04;13.30;45.70
15574;DHT22;7888;46.748;8.102;2024-01-30T09:59:31;13.50;45.60
15574;DHT22;7888;46.748;8.102;2024-01-30T10:01:57;13.60;45.40
15574;DHT22;7888;46.748;8.102;2024-01-30T10:04:23;13.80;45.50
15574;DHT22;7888;46.748;8.102;2024-01-30T10:06:50;14.00;45.30
15574;DHT22;7888;46.748;8.102;2024-01-30T10:09:16;14.20;45.10
15574;DHT22;7888;46.748;8.102;2024-01-30T10:11:42;14.40;45.50
15574;DHT22;7888;46.748;8.102;2024-01-30T10:14:08;14.50;44.60
15574;DHT22;7888;46.748;8.102;2024-01-30T10:16:36;14.70;44.40
15574;DHT22;7888;46.748;8.102;2024-01-30T10:19:02;14.90;44.20
15574;DHT22;7888;46.748;8.102;2024-01-30T10:21:29;15.10;44.10
15574;DHT22;7888;46.748;8.102;2024-01-30T10:23:56;15.30;43.70
15574;DHT22;7888;46.748;8.102;2024-01-30T10:26:21;15.40;43.60
15574;DHT22;7888;46.748;8.102;2024-01-30T10:28:48;15.70;43.40
15574;DHT22;7888;46.748;8.102;2024-01-30T10:31:17;15.90;43.40
15574;DHT22;7888;46.748;8.102;2024-01-30T10:33:46;16.10;42.90
15574;DHT22;7888;46.748;8.102;2024-01-30T10:36:14;16.30;42.80
15574;DHT22;7888;46.748;8.102;2024-01-30T10:38:42;16.50;42.60
15574;DHT22;7888;46.748;8.102;2024-01-30T10:41:13;16.60;42.30
15574;DHT22;7888;46.748;8.102;2024-01-30T10:43:50;16.70;42.20
15574;DHT22;7888;46.748;8.102;2024-01-30T10:46:31;16.70;41.40
15574;DHT22;7888;46.748;8.102;2024-01-30T10:48:58;16.80;41.40
15574;DHT22;7888;46.748;8.102;2024-01-30T10:51:26;16.70;41.10
15574;DHT22;7888;46.748;8.102;2024-01-30T10:53:53;16.70;40.80
15574;DHT22;7888;46.748;8.102;2024-01-30T10:56:21;16.60;40.50
15574;DHT22;7888;46.748;8.102;2024-01-30T10:58:52;16.60;40.50
15574;DHT22;7888;46.748;8.102;2024-01-30T11:01:20;16.50;40.30
15574;DHT22;7888;46.748;8.102;2024-01-30T11:03:53;16.50;40.60
15574;DHT22;7888;46.748;8.102;2024-01-30T11:06:25;16.50;40.80
15574;DHT22;7888;46.748;8.102;2024-01-30T11:09:04;16.50;40.90
15574;DHT22;7888;46.748;8.102;2024-01-30T11:11:57;16.60;41.10
15574;DHT22;7888;46.748;8.102;2024-01-30T11:14:28;16.60;41.30
15574;DHT22;7888;46.748;8.102;2024-01-30T11:16:59;16.80;41.60
15574;DHT22;7888;46.748;8.102;2024-01-30T11:19:26;16.90;41.50
15574;DHT22;7888;46.748;8.102;2024-01-30T11:21:53;17.00;41.60
15574;DHT22;7888;46.748;8.102;2024-01-30T11:24:23;17.20;41.50
15574;DHT22;7888;46.748;8.102;2024-01-30T11:26:55;17.30;41.30
15574;DHT22;7888;46.748;8.102;2024-01-30T11:29:27;17.50;41.60
15574;DHT22;7888;46.748;8.102;2024-01-30T11:31:55;17.80;41.40
15574;DHT22;7888;46.748;8.102;2024-01-30T11:34:22;18.00;41.20
15574;DHT22;7888;46.748;8.102;2024-01-30T11:37:03;18.20;40.70
15574;DHT22;7888;46.748;8.102;2024-01-30T11:39:32;18.30;40.20
15574;DHT22;7888;46.748;8.102;2024-01-30T11:41:59;18.30;40.20
15574;DHT22;7888;46.748;8.102;2024-01-30T11:44:25;18.50;40.20
15574;DHT22;7888;46.748;8.102;2024-01-30T11:46:52;18.50;39.90
15574;DHT22;7888;46.748;8.102;2024-01-30T11:49:18;18.60;39.90
15574;DHT22;7888;46.748;8.102;2024-01-30T11:51:47;18.60;39.90
15574;DHT22;7888;46.748;8.102;2024-01-30T11:54:15;18.70;39.80
15574;DHT22;7888;46.748;8.102;2024-01-30T11:56:42;18.70;39.60
15574;DHT22;7888;46.748;8.102;2024-01-30T11:59:08;18.70;39.40
15574;DHT22;7888;46.748;8.102;2024-01-30T12:01:34;18.70;39.30
15574;DHT22;7888;46.748;8.102;2024-01-30T12:04:00;18.70;39.20
15574;DHT22;7888;46.748;8.102;2024-01-30T12:06:27;18.60;39.10
15574;DHT22;7888;46.748;8.102;2024-01-30T12:09:00;18.60;39.20
15574;DHT22;7888;46.748;8.102;2024-01-30T12:11:29;18.60;39.00
15574;DHT22;7888;46.748;8.102;2024-01-30T12:13:56;18.50;39.30
15574;DHT22;7888;46.748;8.102;2024-01-30T12:16:22;18.50;39.20
15574;DHT22;7888;46.748;8.102;2024-01-30T12:18:48;18.50;39.10
15574;DHT22;7888;46.748;8.102;2024-01-30T12:21:17;18.50;39.00
15574;DHT22;7888;46.748;8.102;2024-01-30T12:23:43;18.50;38.90
15574;DHT22;7888;46.748;8.102;2024-01-30T12:26:10;18.40;39.00
15574;DHT22;7888;46.748;8.102;2024-01-30T12:28:36;18.40;38.80
15574;DHT22;7888;46.748;8.102;2024-01-30T12:31:03;18.30;38.50
15574;DHT22;7888;46.748;8.102;2024-01-30T12:33:30;18.20;38.20
15574;DHT22;7888;46.748;8.102;2024-01-30T12:35:57;18.10;38.50
15574;DHT22;7888;46.748;8.102;2024-01-30T12:38:27;18.10;39.00
15574;DHT22;7888;46.748;8.102;2024-01-30T12:40:56;18.20;39.20
15574;DHT22;7888;46.748;8.102;2024-01-30T12:43:23;18.60;39.10
15574;DHT22;7888;46.748;8.102;2024-01-30T12:45:50;18.90;39.10
15574;DHT22;7888;46.748;8.102;2024-01-30T12:48:17;19.20;38.70
15574;DHT22;7888;46.748;8.102;2024-01-30T12:50:43;19.50;38.50
15574;DHT22;7888;46.748;8.102;2024-01-30T12:53:09;19.90;38.40
15574;DHT22;7888;46.748;8.102;2024-01-30T12:55:35;20.40;38.00
15574;DHT22;7888;46.748;8.102;2024-01-30T12:58:01;20.80;37.40
15574;DHT22;7888;46.748;8.102;2024-01-30T13:00:27;21.20;36.70
15574;DHT22;7888;46.748;8.102;2024-01-30T13:02:52;21.50;36.30
15574;DHT22;7888;46.748;8.102;2024-01-30T13:05:18;21.70;35.70
15574;DHT22;7888;46.748;8.102;2024-01-30T13:07:44;21.80;35.00
15574;DHT22;7888;46.748;8.102;2024-01-30T13:10:10;21.80;34.50
15574;DHT22;7888;46.748;8.102;2024-01-30T13:12:36;21.80;34.20
15574;DHT22;7888;46.748;8.102;2024-01-30T13:15:04;21.80;34.10
15574;DHT22;7888;46.748;8.102;2024-01-30T13:17:31;21.70;34.20
15574;DHT22;7888;46.748;8.102;2024-01-30T13:19:57;21.70;33.90
15574;DHT22;7888;46.748;8.102;2024-01-30T13:22:24;21.60;33.80
15574;DHT22;7888;46.748;8.102;2024-01-30T13:24:50;21.50;33.60
15574;DHT22;7888;46.748;8.102;2024-01-30T13:27:16;21.30;33.40
15574;DHT22;7888;46.748;8.102;2024-01-30T13:29:42;21.10;33.40
15574;DHT22;7888;46.748;8.102;2024-01-30T13:32:08;20.90;33.40
15574;DHT22;7888;46.748;8.102;2024-01-30T13:34:34;20.60;33.30
15574;DHT22;7888;46.748;8.102;2024-01-30T13:36:59;20.40;33.30
15574;DHT22;7888;46.748;8.102;2024-01-30T13:39:25;20.20;33.50
15574;DHT22;7888;46.748;8.102;2024-01-30T13:41:51;19.90;33.60
15574;DHT22;7888;46.748;8.102;2024-01-30T13:44:16;19.70;33.70
15574;DHT22;7888;46.748;8.102;2024-01-30T13:46:43;19.50;34.00
15574;DHT22;7888;46.748;8.102;2024-01-30T13:49:09;19.20;34.00
15574;DHT22;7888;46.748;8.102;2024-01-30T13:51:34;19.10;34.20
15574;DHT22;7888;46.748;8.102;2024-01-30T13:54:00;19.00;34.30
15574;DHT22;7888;46.748;8.102;2024-01-30T13:56:26;18.90;34.60
15574;DHT22;7888;46.748;8.102;2024-01-30T13:58:53;19.00;35.10
15574;DHT22;7888;46.748;8.102;2024-01-30T14:01:21;19.10;35.20
15574;DHT22;7888;46.748;8.102;2024-01-30T14:03:46;19.40;35.30
15574;DHT22;7888;46.748;8.102;2024-01-30T14:06:12;19.60;35.10
15574;DHT22;7888;46.748;8.102;2024-01-30T14:08:38;19.80;34.90
15574;DHT22;7888;46.748;8.102;2024-01-30T14:11:04;20.00;34.30
15574;DHT22;7888;46.748;8.102;2024-01-30T14:13:29;20.10;34.20
15574;DHT22;7888;46.748;8.102;2024-01-30T14:15:57;20.30;34.20
15574;DHT22;7888;46.748;8.102;2024-01-30T14:18:22;20.40;34.00
15574;DHT22;7888;46.748;8.102;2024-01-30T14:20:48;20.40;33.60
15574;DHT22;7888;46.748;8.102;2024-01-30T14:23:16;20.30;33.30
15574;DHT22;7888;46.748;8.102;2024-01-30T14:25:42;20.30;33.40
15574;DHT22;7888;46.748;8.102;2024-01-30T14:28:08;20.20;33.30
15574;DHT22;7888;46.748;8.102;2024-01-30T14:30:34;20.10;33.20
15574;DHT22;7888;46.748;8.102;2024-01-30T14:33:01;19.90;33.10
15574;DHT22;7888;46.748;8.102;2024-01-30T14:35:27;19.80;32.90
15574;DHT22;7888;46.748;8.102;2024-01-30T14:37:53;19.60;33.00
15574;DHT22;7888;46.748;8.102;2024-01-30T14:40:19;19.50;33.00
15574;DHT22;7888;46.748;8.102;2024-01-30T14:42:45;19.30;32.90
15574;DHT22;7888;46.748;8.102;2024-01-30T14:45:11;19.20;33.00
15574;DHT22;7888;46.748;8.102;2024-01-30T14:47:37;19.10;33.10
15574;DHT22;7888;46.748;8.102;2024-01-30T14:50:04;18.90;33.40
15574;DHT22;7888;46.748;8.102;2024-01-30T14:52:31;18.80;33.50
15574;DHT22;7888;46.748;8.102;2024-01-30T14:54:57;18.70;33.80
15574;DHT22;7888;46.748;8.102;2024-01-30T14:57:24;18.60;34.00
15574;DHT22;7888;46.748;8.102;2024-01-30T14:59:50;18.50;34.10
15574;DHT22;7888;46.748;8.102;2024-01-30T15:02:16;18.50;34.30
15574;DHT22;7888;46.748;8.102;2024-01-30T15:04:42;18.30;34.20
15574;DHT22;7888;46.748;8.102;2024-01-30T15:07:08;18.20;34.30
15574;DHT22;7888;46.748;8.102;2024-01-30T15:09:34;18.10;34.20
15574;DHT22;7888;46.748;8.102;2024-01-30T15:11:59;18.00;34.80
15574;DHT22;7888;46.748;8.102;2024-01-30T15:14:25;18.00;34.10
15574;DHT22;7888;46.748;8.102;2024-01-30T15:16:51;17.80;34.10
15574;DHT22;7888;46.748;8.102;2024-01-30T15:19:17;17.70;34.10
15574;DHT22;7888;46.748;8.102;2024-01-30T15:21:43;17.70;34.10
15574;DHT22;7888;46.748;8.102;2024-01-30T15:24:08;17.60;34.00
15574;DHT22;7888;46.748;8.102;2024-01-30T15:26:34;17.50;34.00
15574;DHT22;7888;46.748;8.102;2024-01-30T15:29:00;17.40;34.20
15574;DHT22;7888;46.748;8.102;2024-01-30T15:31:25;17.30;34.20
15574;DHT22;7888;46.748;8.102;2024-01-30T15:33:51;17.20;34.30
15574;DHT22;7888;46.748;8.102;2024-01-30T15:36:17;17.10;34.30
15574;DHT22;7888;46.748;8.102;2024-01-30T15:38:42;17.00;34.40
15574;DHT22;7888;46.748;8.102;2024-01-30T15:41:09;16.90;34.40
15574;DHT22;7888;46.748;8.102;2024-01-30T15:43:34;16.80;34.70
15574;DHT22;7888;46.748;8.102;2024-01-30T15:46:01;16.70;35.10
15574;DHT22;7888;46.748;8.102;2024-01-30T15:48:27;16.60;35.40
15574;DHT22;7888;46.748;8.102;2024-01-30T15:50:53;16.60;35.70
15574;DHT22;7888;46.748;8.102;2024-01-30T15:53:21;16.50;35.80